sensor_id;sensor_type;location;lat;lon;timestamp;temperature;humidity
39095;DHT22;24840;47.508;19.376;2023-02-18T00:00:12;8.70;99.90
39095;DHT22;24840;47.508;19.376;2023-02-18T00:02:38;8.50;99.90
39095;DHT22;24840;47.508;19.376;2023-02-18T00:05:04;8.40;99.90
39095;DHT22;24840;47.508;19.376;2023-02-18T00:07:38;8.50;99.90
39095;DHT22;24840;47.508;19.376;2023-02-18T00:10:05;8.50;99.90
39095;DHT22;24840;47.508;19.376;2023-02-18T00:12:32;8.50;99.90
39095;DHT22;24840;47.508;19.376;2023-02-18T00:14:58;8.50;99.90
39095;DHT22;24840;47.508;19.376;2023-02-18T00:17:23;8.60;99.90
39095;DHT22;24840;47.508;19.376;2023-02-18T00:19:49;8.60;99.90
39095;DHT22;24840;47.508;19.376;2023-02-18T00:22:15;8.60;99.90
39095;DHT22;24840;47.508;19.376;2023-02-18T00:24:41;9.10;99.90
39095;DHT22;24840;47.508;19.376;2023-02-18T00:27:06;9.10;99.90
39095;DHT22;24840;47.508;19.376;2023-02-18T00:29:32;9.10;99.90
39095;DHT22;24840;47.508;19.376;2023-02-18T00:31:58;9.10;99.90
39095;DHT22;24840;47.508;19.376;2023-02-18T00:34:24;9.20;99.90
39095;DHT22;24840;47.508;19.376;2023-02-18T00:36:50;9.50;99.90
39095;DHT22;24840;47.508;19.376;2023-02-18T00:39:15;9.90;99.90
39095;DHT22;24840;47.508;19.376;2023-02-18T00:41:44;10.10;99.90
39095;DHT22;24840;47.508;19.376;2023-02-18T00:44:10;10.20;99.90
39095;DHT22;24840;47.508;19.376;2023-02-18T00:46:37;10.30;99.90
39095;DHT22;24840;47.508;19.376;2023-02-18T00:49:04;10.60;99.90
39095;DHT22;24840;47.508;19.376;2023-02-18T00:51:30;11.00;99.90
39095;DHT22;24840;47.508;19.376;2023-02-18T00:53:56;10.80;99.90
39095;DHT22;24840;47.508;19.376;2023-02-18T00:56:22;11.00;99.90
39095;DHT22;24840;47.508;19.376;2023-02-18T00:58:48;11.10;99.90
39095;DHT22;24840;47.508;19.376;2023-02-18T01:01:16;11.20;99.90
39095;DHT22;24840;47.508;19.376;2023-02-18T01:03:42;11.30;99.90
39095;DHT22;24840;47.508;19.376;2023-02-18T01:06:09;11.30;99.90
39095;DHT22;24840;47.508;19.376;2023-02-18T01:08:36;11.50;99.90
39095;DHT22;24840;47.508;19.376;2023-02-18T01:11:03;11.30;99.90
39095;DHT22;24840;47.508;19.376;2023-02-18T01:13:29;11.60;99.90
39095;DHT22;24840;47.508;19.376;2023-02-18T01:15:55;11.40;99.90
39095;DHT22;24840;47.508;19.376;2023-02-18T01:18:21;11.60;99.90
39095;DHT22;24840;47.508;19.376;2023-02-18T01:20:48;11.90;99.90
39095;DHT22;24840;47.508;19.376;2023-02-18T01:23:13;12.00;99.90
39095;DHT22;24840;47.508;19.376;2023-02-18T01:25:40;12.00;99.90
39095;DHT22;24840;47.508;19.376;2023-02-18T01:28:07;12.20;99.90
39095;DHT22;24840;47.508;19.376;2023-02-18T01:30:33;12.40;99.90
39095;DHT22;24840;47.508;19.376;2023-02-18T01:32:59;12.50;99.90
39095;DHT22;24840;47.508;19.376;2023-02-18T01:35:25;12.50;99.90
39095;DHT22;24840;47.508;19.376;2023-02-18T01:37:51;12.60;99.90
39095;DHT22;24840;47.508;19.376;2023-02-18T01:40:20;12.30;99.90
39095;DHT22;24840;47.508;19.376;2023-02-18T01:42:47;12.50;99.90
39095;DHT22;24840;47.508;19.376;2023-02-18T01:48:15;12.30;99.90
39095;DHT22;24840;47.508;19.376;2023-02-18T01:50:48;12.60;99.90
39095;DHT22;24840;47.508;19.376;2023-02-18T01:53:17;12.40;99.90
39095;DHT22;24840;47.508;19.376;2023-02-18T01:55:46;12.40;99.90
39095;DHT22;24840;47.508;19.376;2023-02-18T01:58:12;12.30;99.90
39095;DHT22;24840;47.508;19.376;2023-02-18T02:00:38;12.40;99.90
39095;DHT22;24840;47.508;19.376;2023-02-18T02:03:04;12.60;99.90
39095;DHT22;24840;47.508;19.376;2023-02-18T02:05:31;12.70;99.90
39095;DHT22;24840;47.508;19.376;2023-02-18T02:07:58;12.90;99.90
39095;DHT22;24840;47.508;19.376;2023-02-18T02:10:45;12.90;99.90
39095;DHT22;24840;47.508;19.376;2023-02-18T02:13:24;12.90;99.90
39095;DHT22;24840;47.508;19.376;2023-02-18T02:16:05;13.20;99.90
39095;DHT22;24840;47.508;19.376;2023-02-18T02:18:49;13.10;99.90
39095;DHT22;24840;47.508;19.376;2023-02-18T02:27:43;12.90;99.90
39095;DHT22;24840;47.508;19.376;2023-02-18T02:33:17;12.90;99.90
39095;DHT22;24840;47.508;19.376;2023-02-18T02:35:56;12.90;99.90
39095;DHT22;24840;47.508;19.376;2023-02-18T02:38:36;12.90;99.90
39095;DHT22;24840;47.508;19.376;2023-02-18T02:41:13;12.90;99.90
39095;DHT22;24840;47.508;19.376;2023-02-18T02:46:44;12.90;99.90
39095;DHT22;24840;47.508;19.376;2023-02-18T02:52:16;13.20;99.90
39095;DHT22;24840;47.508;19.376;2023-02-18T02:54:44;13.30;99.90
39095;DHT22;24840;47.508;19.376;2023-02-18T02:59:43;13.20;99.90
39095;DHT22;24840;47.508;19.376;2023-02-18T03:10:44;13.00;99.90
39095;DHT22;24840;47.508;19.376;2023-02-18T03:19:21;13.30;99.90
39095;DHT22;24840;47.508;19.376;2023-02-18T03:24:33;13.20;99.90
39095;DHT22;24840;47.508;19.376;2023-02-18T03:27:13;13.10;99.90
39095;DHT22;24840;47.508;19.376;2023-02-18T03:29:41;13.20;99.90
39095;DHT22;24840;47.508;19.376;2023-02-18T03:32:09;13.20;99.90
39095;DHT22;24840;47.508;19.376;2023-02-18T03:34:42;13.10;99.90
39095;DHT22;24840;47.508;19.376;2023-02-18T03:37:09;13.10;99.90
39095;DHT22;24840;47.508;19.376;2023-02-18T03:39:39;13.10;99.90
39095;DHT22;24840;47.508;19.376;2023-02-18T03:42:06;13.20;99.90
39095;DHT22;24840;47.508;19.376;2023-02-18T03:44:32;13.10;99.90
39095;DHT22;24840;47.508;19.376;2023-02-18T03:46:58;13.00;99.90
39095;DHT22;24840;47.508;19.376;2023-02-18T03:49:23;13.00;99.90
39095;DHT22;24840;47.508;19.376;2023-02-18T03:51:49;13.00;99.90
39095;DHT22;24840;47.508;19.376;2023-02-18T03:54:15;13.00;99.90
39095;DHT22;24840;47.508;19.376;2023-02-18T03:56:41;13.20;99.90
39095;DHT22;24840;47.508;19.376;2023-02-18T03:59:07;13.10;99.90
39095;DHT22;24840;47.508;19.376;2023-02-18T04:01:33;13.20;99.90
39095;DHT22;24840;47.508;19.376;2023-02-18T04:04:00;13.00;99.90
39095;DHT22;24840;47.508;19.376;2023-02-18T04:06:27;13.20;99.90
39095;DHT22;24840;47.508;19.376;2023-02-18T04:08:53;13.30;99.90
39095;DHT22;24840;47.508;19.376;2023-02-18T04:11:19;13.30;99.90
39095;DHT22;24840;47.508;19.376;2023-02-18T04:13:44;13.30;99.90
39095;DHT22;24840;47.508;19.376;2023-02-18T04:16:10;13.10;99.90
39095;DHT22;24840;47.508;19.376;2023-02-18T04:18:36;13.40;99.90
39095;DHT22;24840;47.508;19.376;2023-02-18T04:21:02;13.50;99.90
39095;DHT22;24840;47.508;19.376;2023-02-18T04:23:28;13.40;99.90
39095;DHT22;24840;47.508;19.376;2023-02-18T04:25:53;13.30;99.90
39095;DHT22;24840;47.508;19.376;2023-02-18T04:28:19;13.30;99.90
39095;DHT22;24840;47.508;19.376;2023-02-18T04:30:46;13.40;99.90
39095;DHT22;24840;47.508;19.376;2023-02-18T04:33:12;13.40;99.90
39095;DHT22;24840;47.508;19.376;2023-02-18T04:35:38;13.30;99.90
39095;DHT22;24840;47.508;19.376;2023-02-18T04:38:07;13.20;99.90
39095;DHT22;24840;47.508;19.376;2023-02-18T04:40:34;13.10;99.90
39095;DHT22;24840;47.508;19.376;2023-02-18T04:43:00;13.20;99.90
39095;DHT22;24840;47.508;19.376;2023-02-18T04:45:27;13.30;99.90
39095;DHT22;24840;47.508;19.376;2023-02-18T04:47:53;13.30;99.90
39095;DHT22;24840;47.508;19.376;2023-02-18T04:50:20;13.30;99.90
39095;DHT22;24840;47.508;19.376;2023-02-18T04:52:46;13.40;99.90
39095;DHT22;24840;47.508;19.376;2023-02-18T04:55:12;13.30;99.90
39095;DHT22;24840;47.508;19.376;2023-02-18T04:57:37;13.30;99.90
39095;DHT22;24840;47.508;19.376;2023-02-18T05:00:05;13.00;99.90
39095;DHT22;24840;47.508;19.376;2023-02-18T05:02:32;13.10;99.90
39095;DHT22;24840;47.508;19.376;2023-02-18T05:04:58;12.90;99.90
39095;DHT22;24840;47.508;19.376;2023-02-18T05:07:24;12.90;99.90
39095;DHT22;24840;47.508;19.376;2023-02-18T05:09:49;12.90;99.90
39095;DHT22;24840;47.508;19.376;2023-02-18T05:12:15;12.90;99.90
39095;DHT22;24840;47.508;19.376;2023-02-18T05:14:41;12.80;99.90
39095;DHT22;24840;47.508;19.376;2023-02-18T05:17:06;12.80;99.90
39095;DHT22;24840;47.508;19.376;2023-02-18T05:19:32;12.80;99.90
39095;DHT22;24840;47.508;19.376;2023-02-18T05:21:58;12.70;99.90
39095;DHT22;24840;47.508;19.376;2023-02-18T05:24:24;12.60;99.90
39095;DHT22;24840;47.508;19.376;2023-02-18T05:26:49;12.40;99.90
39095;DHT22;24840;47.508;19.376;2023-02-18T05:29:15;12.50;99.90
39095;DHT22;24840;47.508;19.376;2023-02-18T05:31:41;12.50;99.90
39095;DHT22;24840;47.508;19.376;2023-02-18T05:34:06;12.50;99.90
39095;DHT22;24840;47.508;19.376;2023-02-18T05:36:32;12.20;99.90
39095;DHT22;24840;47.508;19.376;2023-02-18T05:38:58;12.10;99.90
39095;DHT22;24840;47.508;19.376;2023-02-18T05:41:24;12.10;99.90
39095;DHT22;24840;47.508;19.376;2023-02-18T05:43:49;12.00;99.90
39095;DHT22;24840;47.508;19.376;2023-02-18T05:46:34;12.10;99.90
39095;DHT22;24840;47.508;19.376;2023-02-18T05:49:00;12.10;99.90
39095;DHT22;24840;47.508;19.376;2023-02-18T05:51:25;12.10;99.90
39095;DHT22;24840;47.508;19.376;2023-02-18T05:53:51;12.10;99.90
39095;DHT22;24840;47.508;19.376;2023-02-18T05:56:17;12.10;99.90
39095;DHT22;24840;47.508;19.376;2023-02-18T05:58:43;12.10;99.90
39095;DHT22;24840;47.508;19.376;2023-02-18T06:01:08;12.10;99.90
39095;DHT22;24840;47.508;19.376;2023-02-18T06:03:34;12.00;99.90
39095;DHT22;24840;47.508;19.376;2023-02-18T06:06:01;11.90;99.90
39095;DHT22;24840;47.508;19.376;2023-02-18T06:08:27;11.90;99.90
39095;DHT22;24840;47.508;19.376;2023-02-18T06:10:52;11.90;99.90
39095;DHT22;24840;47.508;19.376;2023-02-18T06:13:18;11.90;99.90
39095;DHT22;24840;47.508;19.376;2023-02-18T06:15:44;11.90;99.90
39095;DHT22;24840;47.508;19.376;2023-02-18T06:18:09;11.90;99.90
39095;DHT22;24840;47.508;19.376;2023-02-18T06:20:35;11.90;99.90
39095;DHT22;24840;47.508;19.376;2023-02-18T06:23:01;11.90;99.90
39095;DHT22;24840;47.508;19.376;2023-02-18T06:25:27;11.80;99.90
39095;DHT22;24840;47.508;19.376;2023-02-18T06:27:53;11.80;99.90
39095;DHT22;24840;47.508;19.376;2023-02-18T06:30:18;11.80;99.90
39095;DHT22;24840;47.508;19.376;2023-02-18T06:32:44;11.80;99.90
39095;DHT22;24840;47.508;19.376;2023-02-18T06:35:10;11.90;99.90
39095;DHT22;24840;47.508;19.376;2023-02-18T06:37:36;11.80;99.90
39095;DHT22;24840;47.508;19.376;2023-02-18T06:40:01;11.70;99.90
39095;DHT22;24840;47.508;19.376;2023-02-18T06:42:27;11.80;99.90
39095;DHT22;24840;47.508;19.376;2023-02-18T06:44:53;11.80;99.90
39095;DHT22;24840;47.508;19.376;2023-02-18T06:47:18;11.80;99.90
39095;DHT22;24840;47.508;19.376;2023-02-18T06:49:44;11.90;99.90
39095;DHT22;24840;47.508;19.376;2023-02-18T06:52:10;11.80;99.90
39095;DHT22;24840;47.508;19.376;2023-02-18T06:54:35;11.80;99.90
39095;DHT22;24840;47.508;19.376;2023-02-18T06:57:01;11.80;99.90
39095;DHT22;24840;47.508;19.376;2023-02-18T06:59:27;11.70;99.90
39095;DHT22;24840;47.508;19.376;2023-02-18T07:01:53;11.80;99.90
39095;DHT22;24840;47.508;19.376;2023-02-18T07:04:18;11.80;99.90
39095;DHT22;24840;47.508;19.376;2023-02-18T07:06:44;11.80;99.90
39095;DHT22;24840;47.508;19.376;2023-02-18T07:09:10;11.90;99.90
39095;DHT22;24840;47.508;19.376;2023-02-18T07:11:35;11.90;99.90
39095;DHT22;24840;47.508;19.376;2023-02-18T07:14:01;11.80;99.90
39095;DHT22;24840;47.508;19.376;2023-02-18T07:16:27;11.90;99.90
39095;DHT22;24840;47.508;19.376;2023-02-18T07:18:53;12.00;99.90
39095;DHT22;24840;47.508;19.376;2023-02-18T07:21:18;12.10;99.90
39095;DHT22;24840;47.508;19.376;2023-02-18T07:23:44;12.20;99.90
39095;DHT22;24840;47.508;19.376;2023-02-18T07:26:12;12.30;99.90
39095;DHT22;24840;47.508;19.376;2023-02-18T07:28:38;12.30;99.90
39095;DHT22;24840;47.508;19.376;2023-02-18T07:31:04;12.30;99.90
39095;DHT22;24840;47.508;19.376;2023-02-18T07:33:31;12.30;99.90
39095;DHT22;24840;47.508;19.376;2023-02-18T07:35:59;12.40;99.90
39095;DHT22;24840;47.508;19.376;2023-02-18T07:38:26;12.50;99.90
39095;DHT22;24840;47.508;19.376;2023-02-18T07:40:53;12.70;99.90
39095;DHT22;24840;47.508;19.376;2023-02-18T07:43:19;12.70;99.90
39095;DHT22;24840;47.508;19.376;2023-02-18T07:45:45;12.80;99.90
39095;DHT22;24840;47.508;19.376;2023-02-18T07:48:11;12.90;99.90
39095;DHT22;24840;47.508;19.376;2023-02-18T07:50:42;13.00;99.90
39095;DHT22;24840;47.508;19.376;2023-02-18T07:53:09;13.00;99.90
39095;DHT22;24840;47.508;19.376;2023-02-18T07:55:36;13.00;99.90
39095;DHT22;24840;47.508;19.376;2023-02-18T08:00:43;13.10;99.90
39095;DHT22;24840;47.508;19.376;2023-02-18T08:03:09;13.10;99.90
39095;DHT22;24840;47.508;19.376;2023-02-18T08:05:35;13.30;99.90
39095;DHT22;24840;47.508;19.376;2023-02-18T08:08:01;13.50;99.90
39095;DHT22;24840;47.508;19.376;2023-02-18T08:10:27;13.70;99.90
39095;DHT22;24840;47.508;19.376;2023-02-18T08:12:52;14.20;99.90
39095;DHT22;24840;47.508;19.376;2023-02-18T08:15:18;14.50;99.90
39095;DHT22;24840;47.508;19.376;2023-02-18T08:17:44;14.60;99.90
39095;DHT22;24840;47.508;19.376;2023-02-18T08:20:10;15.30;99.90
39095;DHT22;24840;47.508;19.376;2023-02-18T08:22:35;15.40;99.90
39095;DHT22;24840;47.508;19.376;2023-02-18T08:25:01;15.50;99.90
39095;DHT22;24840;47.508;19.376;2023-02-18T08:27:27;15.80;99.90
39095;DHT22;24840;47.508;19.376;2023-02-18T08:29:53;15.40;99.90
39095;DHT22;24840;47.508;19.376;2023-02-18T08:32:20;14.60;99.90
39095;DHT22;24840;47.508;19.376;2023-02-18T08:34:46;15.10;99.90
39095;DHT22;24840;47.508;19.376;2023-02-18T08:37:11;15.40;99.90
39095;DHT22;24840;47.508;19.376;2023-02-18T08:39:38;15.50;99.90
39095;DHT22;24840;47.508;19.376;2023-02-18T08:42:04;15.70;99.90
39095;DHT22;24840;47.508;19.376;2023-02-18T08:44:30;15.20;99.90
39095;DHT22;24840;47.508;19.376;2023-02-18T08:46:55;15.30;99.90
39095;DHT22;24840;47.508;19.376;2023-02-18T08:49:21;15.20;99.90
39095;DHT22;24840;47.508;19.376;2023-02-18T08:51:49;14.90;99.90
39095;DHT22;24840;47.508;19.376;2023-02-18T08:54:16;15.00;99.90
39095;DHT22;24840;47.508;19.376;2023-02-18T08:56:42;15.30;99.90
39095;DHT22;24840;47.508;19.376;2023-02-18T08:59:07;15.60;99.70
39095;DHT22;24840;47.508;19.376;2023-02-18T09:01:33;15.40;99.70
39095;DHT22;24840;47.508;19.376;2023-02-18T09:03:59;15.40;99.90
39095;DHT22;24840;47.508;19.376;2023-02-18T09:06:25;15.80;99.10
39095;DHT22;24840;47.508;19.376;2023-02-18T09:08:51;15.80;99.10
39095;DHT22;24840;47.508;19.376;2023-02-18T09:11:17;15.80;98.60
39095;DHT22;24840;47.508;19.376;2023-02-18T09:13:44;15.90;98.90
39095;DHT22;24840;47.508;19.376;2023-02-18T09:16:15;15.90;98.70
39095;DHT22;24840;47.508;19.376;2023-02-18T09:18:43;15.90;98.20
39095;DHT22;24840;47.508;19.376;2023-02-18T09:21:11;15.80;98.60
39095;DHT22;24840;47.508;19.376;2023-02-18T09:23:38;16.00;98.10
39095;DHT22;24840;47.508;19.376;2023-02-18T09:26:05;16.40;98.70
39095;DHT22;24840;47.508;19.376;2023-02-18T09:28:31;16.30;97.60
39095;DHT22;24840;47.508;19.376;2023-02-18T09:31:02;15.80;98.10
39095;DHT22;24840;47.508;19.376;2023-02-18T09:33:27;15.60;98.50
39095;DHT22;24840;47.508;19.376;2023-02-18T09:35:53;15.30;98.90
39095;DHT22;24840;47.508;19.376;2023-02-18T09:38:19;15.00;99.30
39095;DHT22;24840;47.508;19.376;2023-02-18T09:40:49;15.00;99.50
39095;DHT22;24840;47.508;19.376;2023-02-18T09:43:44;14.80;99.30
39095;DHT22;24840;47.508;19.376;2023-02-18T09:46:35;14.60;99.80
39095;DHT22;24840;47.508;19.376;2023-02-18T09:49:04;14.70;99.90
39095;DHT22;24840;47.508;19.376;2023-02-18T09:51:31;15.10;99.90
39095;DHT22;24840;47.508;19.376;2023-02-18T09:53:57;15.60;98.80
39095;DHT22;24840;47.508;19.376;2023-02-18T09:56:29;16.50;97.60
39095;DHT22;24840;47.508;19.376;2023-02-18T09:58:57;17.00;97.00
39095;DHT22;24840;47.508;19.376;2023-02-18T10:01:31;17.50;95.80
39095;DHT22;24840;47.508;19.376;2023-02-18T10:04:04;17.60;94.90
39095;DHT22;24840;47.508;19.376;2023-02-18T10:06:33;17.30;94.50
39095;DHT22;24840;47.508;19.376;2023-02-18T10:09:05;17.30;95.80
39095;DHT22;24840;47.508;19.376;2023-02-18T10:11:40;17.60;95.00
39095;DHT22;24840;47.508;19.376;2023-02-18T10:14:10;17.00;94.90
39095;DHT22;24840;47.508;19.376;2023-02-18T10:16:36;16.60;95.40
39095;DHT22;24840;47.508;19.376;2023-02-18T10:21:49;16.30;95.10
39095;DHT22;24840;47.508;19.376;2023-02-18T10:26:47;16.00;96.10
39095;DHT22;24840;47.508;19.376;2023-02-18T10:29:16;16.40;95.70
39095;DHT22;24840;47.508;19.376;2023-02-18T10:34:42;16.30;95.40
39095;DHT22;24840;47.508;19.376;2023-02-18T10:40:21;16.00;96.00
39095;DHT22;24840;47.508;19.376;2023-02-18T10:48:59;15.70;96.70
39095;DHT22;24840;47.508;19.376;2023-02-18T10:51:33;15.50;96.90
39095;DHT22;24840;47.508;19.376;2023-02-18T10:54:00;15.40;97.60
39095;DHT22;24840;47.508;19.376;2023-02-18T10:56:48;15.40;97.50
39095;DHT22;24840;47.508;19.376;2023-02-18T10:59:22;14.90;97.20
39095;DHT22;24840;47.508;19.376;2023-02-18T11:02:00;14.70;97.70
39095;DHT22;24840;47.508;19.376;2023-02-18T11:04:40;14.90;98.00
39095;DHT22;24840;47.508;19.376;2023-02-18T11:07:22;14.70;97.60
39095;DHT22;24840;47.508;19.376;2023-02-18T11:09:57;14.70;97.80
39095;DHT22;24840;47.508;19.376;2023-02-18T11:12:43;14.60;98.10
39095;DHT22;24840;47.508;19.376;2023-02-18T11:17:40;14.70;98.20
39095;DHT22;24840;47.508;19.376;2023-02-18T11:20:33;14.60;98.40
39095;DHT22;24840;47.508;19.376;2023-02-18T11:25:33;14.60;98.40
39095;DHT22;24840;47.508;19.376;2023-02-18T11:30:41;14.10;98.90
39095;DHT22;24840;47.508;19.376;2023-02-18T11:35:52;14.30;99.70
39095;DHT22;24840;47.508;19.376;2023-02-18T11:38:25;14.30;99.60
39095;DHT22;24840;47.508;19.376;2023-02-18T11:41:12;14.30;99.90
39095;DHT22;24840;47.508;19.376;2023-02-18T11:43:48;14.90;99.90
39095;DHT22;24840;47.508;19.376;2023-02-18T11:46:22;15.00;98.90
39095;DHT22;24840;47.508;19.376;2023-02-18T11:48:48;15.40;98.90
39095;DHT22;24840;47.508;19.376;2023-02-18T11:51:26;15.60;97.30
39095;DHT22;24840;47.508;19.376;2023-02-18T11:56:24;16.10;96.40
39095;DHT22;24840;47.508;19.376;2023-02-18T11:58:50;15.90;96.80
39095;DHT22;24840;47.508;19.376;2023-02-18T12:01:50;15.50;96.80
39095;DHT22;24840;47.508;19.376;2023-02-18T12:04:26;15.20;97.40
39095;DHT22;24840;47.508;19.376;2023-02-18T12:09:48;15.20;97.60
39095;DHT22;24840;47.508;19.376;2023-02-18T12:12:18;15.50;97.60
39095;DHT22;24840;47.508;19.376;2023-02-18T12:14:44;16.10;97.00
39095;DHT22;24840;47.508;19.376;2023-02-18T12:17:29;16.40;96.30
39095;DHT22;24840;47.508;19.376;2023-02-18T12:20:42;16.20;96.50
39095;DHT22;24840;47.508;19.376;2023-02-18T12:26:17;15.30;97.60
39095;DHT22;24840;47.508;19.376;2023-02-18T12:29:08;14.90;98.80
39095;DHT22;24840;47.508;19.376;2023-02-18T12:34:41;15.10;98.70
39095;DHT22;24840;47.508;19.376;2023-02-18T12:51:19;15.80;98.30
39095;DHT22;24840;47.508;19.376;2023-02-18T13:01:59;15.80;98.00
39095;DHT22;24840;47.508;19.376;2023-02-18T13:07:14;15.70;98.20
39095;DHT22;24840;47.508;19.376;2023-02-18T13:12:50;16.00;98.20
39095;DHT22;24840;47.508;19.376;2023-02-18T13:15:38;15.90;97.90
39095;DHT22;24840;47.508;19.376;2023-02-18T13:18:13;15.70;98.00
39095;DHT22;24840;47.508;19.376;2023-02-18T13:20:59;16.10;97.60
39095;DHT22;24840;47.508;19.376;2023-02-18T13:23:29;16.80;96.20
39095;DHT22;24840;47.508;19.376;2023-02-18T13:26:02;16.80;95.90
39095;DHT22;24840;47.508;19.376;2023-02-18T13:39:29;17.80;92.50
39095;DHT22;24840;47.508;19.376;2023-02-18T13:42:35;17.50;92.80
39095;DHT22;24840;47.508;19.376;2023-02-18T13:45:04;17.60;92.80
39095;DHT22;24840;47.508;19.376;2023-02-18T13:47:42;17.80;92.10
39095;DHT22;24840;47.508;19.376;2023-02-18T13:53:33;17.70;92.40
39095;DHT22;24840;47.508;19.376;2023-02-18T13:58:25;17.90;91.60
39095;DHT22;24840;47.508;19.376;2023-02-18T14:06:40;18.10;90.90
39095;DHT22;24840;47.508;19.376;2023-02-18T14:09:37;17.90;90.60
39095;DHT22;24840;47.508;19.376;2023-02-18T14:14:53;17.90;90.60
39095;DHT22;24840;47.508;19.376;2023-02-18T14:22:45;17.20;91.70
39095;DHT22;24840;47.508;19.376;2023-02-18T14:27:50;16.80;92.10
39095;DHT22;24840;47.508;19.376;2023-02-18T14:30:37;16.70;92.20
39095;DHT22;24840;47.508;19.376;2023-02-18T14:33:04;16.60;92.40
39095;DHT22;24840;47.508;19.376;2023-02-18T14:35:45;16.60;92.30
39095;DHT22;24840;47.508;19.376;2023-02-18T14:51:50;16.30;93.80
39095;DHT22;24840;47.508;19.376;2023-02-18T14:54:20;16.20;93.40
39095;DHT22;24840;47.508;19.376;2023-02-18T14:57:00;16.00;93.90
39095;DHT22;24840;47.508;19.376;2023-02-18T14:59:33;16.00;93.90
39095;DHT22;24840;47.508;19.376;2023-02-18T15:02:01;15.90;94.10
39095;DHT22;24840;47.508;19.376;2023-02-18T15:04:27;15.80;94.40
39095;DHT22;24840;47.508;19.376;2023-02-18T15:07:04;15.90;94.50
39095;DHT22;24840;47.508;19.376;2023-02-18T15:09:30;15.80;94.50
39095;DHT22;24840;47.508;19.376;2023-02-18T15:12:02;15.70;94.70
39095;DHT22;24840;47.508;19.376;2023-02-18T15:14:35;15.60;94.90
39095;DHT22;24840;47.508;19.376;2023-02-18T15:17:03;15.50;95.00
39095;DHT22;24840;47.508;19.376;2023-02-18T15:19:43;15.50;95.50
39095;DHT22;24840;47.508;19.376;2023-02-18T15:22:17;15.30;95.60
39095;DHT22;24840;47.508;19.376;2023-02-18T15:24:44;15.20;95.80
39095;DHT22;24840;47.508;19.376;2023-02-18T15:27:23;15.10;95.80
39095;DHT22;24840;47.508;19.376;2023-02-18T15:30:18;15.10;96.00
39095;DHT22;24840;47.508;19.376;2023-02-18T15:32:53;15.10;95.70
39095;DHT22;24840;47.508;19.376;2023-02-18T15:35:21;14.90;94.80
39095;DHT22;24840;47.508;19.376;2023-02-18T15:37:52;14.60;94.70
39095;DHT22;24840;47.508;19.376;2023-02-18T15:40:19;14.50;95.00
39095;DHT22;24840;47.508;19.376;2023-02-18T15:42:49;14.30;95.10
39095;DHT22;24840;47.508;19.376;2023-02-18T15:45:21;14.10;95.30
39095;DHT22;24840;47.508;19.376;2023-02-18T15:47:53;14.00;95.50
39095;DHT22;24840;47.508;19.376;2023-02-18T15:50:31;13.70;95.70
39095;DHT22;24840;47.508;19.376;2023-02-18T15:53:03;13.70;96.00
39095;DHT22;24840;47.508;19.376;2023-02-18T15:55:32;13.50;96.20
39095;DHT22;24840;47.508;19.376;2023-02-18T15:58:38;13.30;96.30
39095;DHT22;24840;47.508;19.376;2023-02-18T16:01:05;13.10;96.60
39095;DHT22;24840;47.508;19.376;2023-02-18T16:03:44;13.00;96.80
39095;DHT22;24840;47.508;19.376;2023-02-18T16:08:36;12.70;97.20
39095;DHT22;24840;47.508;19.376;2023-02-18T16:11:07;12.70;97.50
39095;DHT22;24840;47.508;19.376;2023-02-18T16:13:36;12.50;97.80
39095;DHT22;24840;47.508;19.376;2023-02-18T16:16:02;12.40;97.90
39095;DHT22;24840;47.508;19.376;2023-02-18T16:18:37;12.20;98.10
39095;DHT22;24840;47.508;19.376;2023-02-18T16:21:51;12.20;98.20
39095;DHT22;24840;47.508;19.376;2023-02-18T16:23:54;12.10;98.20
39095;DHT22;24840;47.508;19.376;2023-02-18T16:29:15;11.90;98.50
39095;DHT22;24840;47.508;19.376;2023-02-18T16:31:41;11.80;98.80
39095;DHT22;24840;47.508;19.376;2023-02-18T16:34:07;11.80;98.90
39095;DHT22;24840;47.508;19.376;2023-02-18T16:36:33;11.80;98.90
39095;DHT22;24840;47.508;19.376;2023-02-18T16:39:00;11.70;99.20
39095;DHT22;24840;47.508;19.376;2023-02-18T16:41:26;11.60;99.50
39095;DHT22;24840;47.508;19.376;2023-02-18T16:43:52;11.50;99.80
39095;DHT22;24840;47.508;19.376;2023-02-18T16:46:21;11.40;99.90
39095;DHT22;24840;47.508;19.376;2023-02-18T16:48:52;11.40;99.90
39095;DHT22;24840;47.508;19.376;2023-02-18T16:51:39;11.30;99.90
39095;DHT22;24840;47.508;19.376;2023-02-18T16:54:10;11.30;99.90
39095;DHT22;24840;47.508;19.376;2023-02-18T16:56:36;11.20;99.90
39095;DHT22;24840;47.508;19.376;2023-02-18T16:59:03;11.20;99.90
39095;DHT22;24840;47.508;19.376;2023-02-18T17:01:37;11.10;99.90
39095;DHT22;24840;47.508;19.376;2023-02-18T17:04:08;11.10;99.90
39095;DHT22;24840;47.508;19.376;2023-02-18T17:06:35;11.00;99.90
39095;DHT22;24840;47.508;19.376;2023-02-18T17:09:01;11.00;99.90
39095;DHT22;24840;47.508;19.376;2023-02-18T17:11:32;10.90;99.90
39095;DHT22;24840;47.508;19.376;2023-02-18T17:13:59;10.80;99.90
39095;DHT22;24840;47.508;19.376;2023-02-18T17:16:29;10.70;99.90
39095;DHT22;24840;47.508;19.376;2023-02-18T17:18:55;10.70;99.90
39095;DHT22;24840;47.508;19.376;2023-02-18T17:21:22;10.70;99.90
39095;DHT22;24840;47.508;19.376;2023-02-18T17:23:49;10.60;99.90
39095;DHT22;24840;47.508;19.376;2023-02-18T17:26:20;10.60;99.90
39095;DHT22;24840;47.508;19.376;2023-02-18T17:28:49;10.50;99.90
39095;DHT22;24840;47.508;19.376;2023-02-18T17:31:26;10.50;99.90
39095;DHT22;24840;47.508;19.376;2023-02-18T17:33:54;10.40;99.90
39095;DHT22;24840;47.508;19.376;2023-02-18T17:36:20;10.30;99.90
39095;DHT22;24840;47.508;19.376;2023-02-18T17:38:46;10.30;99.90
39095;DHT22;24840;47.508;19.376;2023-02-18T17:41:12;10.30;99.90
39095;DHT22;24840;47.508;19.376;2023-02-18T17:43:38;10.20;99.90
39095;DHT22;24840;47.508;19.376;2023-02-18T17:46:05;10.10;99.90
39095;DHT22;24840;47.508;19.376;2023-02-18T17:48:31;10.10;99.90
39095;DHT22;24840;47.508;19.376;2023-02-18T17:50:57;10.10;99.90
39095;DHT22;24840;47.508;19.376;2023-02-18T17:53:23;10.00;99.90
39095;DHT22;24840;47.508;19.376;2023-02-18T17:55:49;9.90;99.90
39095;DHT22;24840;47.508;19.376;2023-02-18T17:58:15;9.90;99.90
39095;DHT22;24840;47.508;19.376;2023-02-18T18:00:45;9.80;99.90
39095;DHT22;24840;47.508;19.376;2023-02-18T18:03:12;9.70;99.90
39095;DHT22;24840;47.508;19.376;2023-02-18T18:05:40;9.70;99.90
39095;DHT22;24840;47.508;19.376;2023-02-18T18:08:07;9.60;99.90
39095;DHT22;24840;47.508;19.376;2023-02-18T18:10:39;9.50;99.90